Time;durP1;ratioP1;P1;durP2;ratioP2;P2;SDS_P1;SDS_P2;PMS_P1;PMS_P2;Temp;Humidity;BMP_temperature;BMP_pressure;BME280_temperature;BME280_humidity;BME280_pressure;Samples;Min_cycle;Max_cycle;Signal;HPM_P1;HPM_P2
2023/03/16 00:02:10;;;;;;;5.17;1.87;;;1.50;99.90;;;;;;4986141;28;21006;-71
2023/03/16 00:04:36;;;;;;;2.93;2.07;;;1.50;99.90;;;;;;4984915;28;20242;-71
2023/03/16 00:07:05;;;;;;;7.07;2.17;;;1.50;99.90;;;;;;4991687;28;20735;-73
2023/03/16 00:09:30;;;;;;;2.40;2.03;;;1.40;99.90;;;;;;4973218;28;20238;-70
2023/03/16 00:12:02;;;;;;;5.03;2.00;;;1.40;99.90;;;;;;4987025;28;20645;-79
2023/03/16 00:14:27;;;;;;;5.43;2.87;;;1.30;99.90;;;;;;4986730;28;20203;-73
2023/03/16 00:16:53;;;;;;;4.17;1.83;;;1.30;99.90;;;;;;4987013;28;20229;-71
2023/03/16 00:19:21;;;;;;;9.07;2.07;;;1.30;99.90;;;;;;4981656;28;20199;-72
2023/03/16 00:21:50;;;;;;;3.57;1.53;;;1.20;99.90;;;;;;4983581;28;20645;-70
2023/03/16 00:24:17;;;;;;;5.73;1.70;;;1.20;99.90;;;;;;4984451;28;20801;-71
2023/03/16 00:26:46;;;;;;;4.10;2.30;;;1.20;99.90;;;;;;4985738;28;20196;-70
2023/03/16 00:29:12;;;;;;;4.23;2.10;;;1.10;99.90;;;;;;4987321;28;20745;-70
2023/03/16 00:31:42;;;;;;;3.20;2.00;;;1.10;99.90;;;;;;4996035;28;20203;-74
2023/03/16 00:34:11;;;;;;;4.87;1.97;;;1.20;99.90;;;;;;4994968;28;20241;-83
2023/03/16 00:36:37;;;;;;;3.73;2.23;;;1.20;99.90;;;;;;4994720;28;20583;-83
2023/03/16 00:39:05;;;;;;;5.47;2.43;;;1.50;99.90;;;;;;4995470;28;20208;-83
2023/03/16 00:41:31;;;;;;;6.33;2.17;;;1.70;99.90;;;;;;4994024;28;20309;-80
2023/03/16 00:43:56;;;;;;;5.93;2.27;;;1.80;99.90;;;;;;4995250;28;20297;-78
2023/03/16 00:46:25;;;;;;;3.47;2.27;;;1.90;99.90;;;;;;4992472;28;20203;-78
2023/03/16 00:48:50;;;;;;;7.47;2.50;;;2.10;99.90;;;;;;4989148;28;20220;-80
2023/03/16 00:51:17;;;;;;;6.60;2.23;;;2.00;99.90;;;;;;4967186;28;20291;-78
2023/03/16 00:53:44;;;;;;;9.80;2.13;;;2.10;99.90;;;;;;4988834;28;20204;-80
2023/03/16 00:56:10;;;;;;;8.50;2.30;;;2.10;99.90;;;;;;4990812;28;20210;-82
2023/03/16 00:58:38;;;;;;;4.97;2.03;;;2.20;99.90;;;;;;4985735;28;20250;-82
2023/03/16 01:01:06;;;;;;;3.93;1.97;;;2.20;99.90;;;;;;4991152;28;20203;-83
2023/03/16 01:03:32;;;;;;;5.30;1.80;;;2.10;99.90;;;;;;4988920;28;20230;-82
2023/03/16 01:06:06;;;;;;;2.50;1.77;;;2.00;99.90;;;;;;4985387;28;20705;-81
2023/03/16 01:08:32;;;;;;;5.07;2.00;;;2.10;99.90;;;;;;4988747;28;20202;-76
2023/03/16 01:11:02;;;;;;;3.77;1.80;;;2.10;99.90;;;;;;4985709;28;20217;-75
2023/03/16 01:13:28;;;;;;;3.17;2.03;;;2.00;99.90;;;;;;4991053;28;20207;-75
2023/03/16 01:15:53;;;;;;;2.87;1.87;;;1.80;99.90;;;;;;4988282;28;20200;-74
2023/03/16 01:18:19;;;;;;;4.23;1.97;;;1.70;99.90;;;;;;4990414;28;20743;-75
2023/03/16 01:20:49;;;;;;;5.33;1.97;;;1.60;99.90;;;;;;4989424;28;20183;-75
2023/03/16 01:23:18;;;;;;;6.93;2.30;;;1.60;99.90;;;;;;4988995;28;20588;-76
2023/03/16 01:25:51;;;;;;;1.70;1.60;;;1.50;99.90;;;;;;4990291;28;20576;-75
2023/03/16 01:28:18;;;;;;;3.13;2.43;;;1.50;99.90;;;;;;4988478;28;20203;-76
2023/03/16 01:30:43;;;;;;;6.33;1.87;;;1.50;99.90;;;;;;4988835;28;20230;-75
2023/03/16 01:33:09;;;;;;;4.60;1.97;;;1.40;99.90;;;;;;4988240;28;20311;-76
2023/03/16 01:35:35;;;;;;;8.93;2.67;;;1.30;99.90;;;;;;4988292;28;20210;-76
2023/03/16 01:38:00;;;;;;;3.13;1.77;;;1.30;99.90;;;;;;4989402;28;20718;-76
2023/03/16 01:40:26;;;;;;;5.93;2.07;;;1.30;99.90;;;;;;4995109;28;20205;-78
2023/03/16 01:43:00;;;;;;;5.03;1.70;;;1.20;99.90;;;;;;4995635;28;20204;-78
2023/03/16 01:46:03;;;;;;;6.83;2.23;;;1.20;99.90;;;;;;4994548;28;20695;-77
2023/03/16 01:48:36;;;;;;;2.73;1.80;;;1.20;99.90;;;;;;4976560;28;20676;-77
2023/03/16 01:51:05;;;;;;;12.70;1.90;;;1.10;99.90;;;;;;4985454;28;20211;-78
2023/03/16 01:53:32;;;;;;;3.97;2.00;;;1.10;99.90;;;;;;4968038;28;20199;-75
2023/03/16 01:56:00;;;;;;;5.63;2.00;;;1.10;99.90;;;;;;4980887;28;20210;-76
2023/03/16 01:58:27;;;;;;;5.30;1.77;;;1.10;99.90;;;;;;4986392;28;20267;-77
2023/03/16 02:00:52;;;;;;;4.50;1.53;;;1.10;99.90;;;;;;4985644;28;20646;-76
2023/03/16 02:03:20;;;;;;;6.30;3.30;;;1.00;99.90;;;;;;4995252;28;20252;-77
2023/03/16 02:05:53;;;;;;;5.93;4.13;;;1.00;99.90;;;;;;4995508;28;20202;-76
2023/03/16 02:08:21;;;;;;;6.70;3.40;;;1.10;99.90;;;;;;4991494;28;20213;-74
2023/03/16 02:10:56;;;;;;;7.47;2.90;;;1.10;99.90;;;;;;4994228;28;20211;-75
2023/03/16 02:13:23;;;;;;;3.77;2.20;;;1.10;99.90;;;;;;4976575;28;20198;-74
2023/03/16 02:15:51;;;;;;;3.63;1.30;;;1.10;99.90;;;;;;4998091;28;20209;-75
2023/03/16 02:18:17;;;;;;;4.73;2.50;;;1.00;99.90;;;;;;4994547;28;20706;-77
2023/03/16 02:20:58;;;;;;;4.93;2.30;;;1.00;99.90;;;;;;4990380;28;20207;-77
2023/03/16 02:23:24;;;;;;;3.43;1.90;;;1.00;99.90;;;;;;4990725;28;20221;-76
2023/03/16 02:26:09;;;;;;;2.57;1.80;;;0.90;99.90;;;;;;4979087;28;20380;-76
2023/03/16 02:28:46;;;;;;;5.77;2.23;;;0.90;99.90;;;;;;4986386;28;20221;-75
2023/03/16 02:31:14;;;;;;;3.30;1.70;;;0.90;99.90;;;;;;4991106;28;20290;-77
2023/03/16 02:33:40;;;;;;;4.43;2.07;;;0.90;99.90;;;;;;4978837;28;20786;-80
2023/03/16 02:36:06;;;;;;;4.77;2.40;;;0.80;99.90;;;;;;4978985;28;20202;-78
2023/03/16 02:38:31;;;;;;;3.17;2.13;;;0.80;99.90;;;;;;4991222;28;20730;-78
2023/03/16 02:41:10;;;;;;;6.13;2.00;;;0.90;99.90;;;;;;4998665;28;20199;-77
2023/03/16 02:43:38;;;;;;;5.77;2.43;;;0.90;99.90;;;;;;4998820;28;20202;-78
2023/03/16 02:46:05;;;;;;;4.00;2.10;;;0.80;99.90;;;;;;4997836;28;20203;-78
2023/03/16 02:48:44;;;;;;;7.33;2.07;;;0.90;99.90;;;;;;4998061;28;20279;-77
2023/03/16 02:51:10;;;;;;;6.20;2.07;;;0.90;99.90;;;;;;4997979;28;20192;-77
2023/03/16 02:53:35;;;;;;;4.20;1.67;;;0.90;99.90;;;;;;4998275;28;20207;-78
2023/03/16 02:56:01;;;;;;;4.77;1.97;;;0.80;99.90;;;;;;4998190;28;20204;-77
2023/03/16 02:58:28;;;;;;;5.70;2.97;;;0.80;99.90;;;;;;4994184;28;20548;-77
2023/03/16 03:00:54;;;;;;;3.67;2.37;;;0.90;99.90;;;;;;4976391;28;20697;-77
2023/03/16 03:03:19;;;;;;;7.10;2.00;;;0.80;99.90;;;;;;4960818;28;20199;-76
2023/03/16 03:05:45;;;;;;;2.73;2.10;;;0.90;99.90;;;;;;4978016;28;20202;-77
2023/03/16 03:08:11;;;;;;;7.10;2.53;;;0.80;99.90;;;;;;4986021;28;20261;-75
2023/03/16 03:10:36;;;;;;;5.83;2.00;;;0.80;99.90;;;;;;4997853;28;20293;-76
2023/03/16 03:13:02;;;;;;;4.83;2.40;;;0.70;99.90;;;;;;4995871;28;20348;-77
2023/03/16 03:15:28;;;;;;;4.63;1.70;;;0.70;99.90;;;;;;4983003;28;20202;-72
2023/03/16 03:17:53;;;;;;;6.10;1.97;;;0.70;99.90;;;;;;4986762;28;20212;-77
2023/03/16 03:20:20;;;;;;;8.80;2.03;;;0.70;99.90;;;;;;4988629;28;20700;-74
2023/03/16 03:22:48;;;;;;;6.13;2.30;;;0.70;99.90;;;;;;4990535;28;20195;-74
2023/03/16 03:25:15;;;;;;;7.33;2.07;;;0.70;99.90;;;;;;4983809;28;20319;-73
2023/03/16 03:27:42;;;;;;;2.10;1.63;;;0.60;99.90;;;;;;4974109;28;20233;-74
2023/03/16 03:30:14;;;;;;;3.60;1.70;;;0.60;99.90;;;;;;4977805;28;20227;-73
2023/03/16 03:32:40;;;;;;;3.50;2.30;;;0.60;99.90;;;;;;4991668;28;20680;-73
2023/03/16 03:35:07;;;;;;;2.40;1.90;;;0.60;99.90;;;;;;4996053;28;20215;-76
2023/03/16 03:37:33;;;;;;;6.37;1.97;;;0.60;99.90;;;;;;4995988;28;20276;-75
2023/03/16 03:39:58;;;;;;;5.47;2.30;;;0.60;99.90;;;;;;4997143;28;20787;-76
2023/03/16 03:42:24;;;;;;;4.50;2.30;;;0.50;99.90;;;;;;4997268;28;20285;-76
2023/03/16 03:44:51;;;;;;;3.60;1.97;;;0.50;99.90;;;;;;4979252;28;20250;-75
2023/03/16 03:47:18;;;;;;;6.60;2.33;;;0.50;99.90;;;;;;4978161;28;20211;-75
2023/03/16 03:49:43;;;;;;;6.07;1.97;;;0.50;99.90;;;;;;4977631;28;20260;-75
2023/03/16 03:52:09;;;;;;;2.13;1.87;;;0.50;99.90;;;;;;4978061;28;20194;-75
2023/03/16 03:54:35;;;;;;;5.60;2.10;;;0.50;99.90;;;;;;4987057;28;20293;-75
2023/03/16 03:57:00;;;;;;;3.83;2.10;;;0.50;99.90;;;;;;4977460;28;20893;-77
2023/03/16 03:59:26;;;;;;;4.10;1.83;;;0.50;99.90;;;;;;4978519;28;20212;-76
2023/03/16 04:01:52;;;;;;;8.67;2.00;;;0.40;99.90;;;;;;4975970;28;20290;-77
2023/03/16 04:04:18;;;;;;;2.90;1.70;;;0.40;99.90;;;;;;4959968;28;20203;-76
2023/03/16 04:06:44;;;;;;;2.90;2.17;;;0.40;99.90;;;;;;4987354;28;20211;-77
2023/03/16 04:09:10;;;;;;;9.30;4.43;;;0.40;99.90;;;;;;4990825;28;20201;-77
2023/03/16 04:11:36;;;;;;;5.27;2.13;;;0.40;99.90;;;;;;4992688;28;20558;-77
2023/03/16 04:14:02;;;;;;;6.67;1.83;;;0.40;99.90;;;;;;4993341;28;20230;-74
2023/03/16 04:16:28;;;;;;;5.37;2.03;;;0.50;99.90;;;;;;4977697;28;20222;-73
2023/03/16 04:18:54;;;;;;;9.37;2.37;;;0.50;99.90;;;;;;4988535;28;20213;-74
2023/03/16 04:21:21;;;;;;;7.47;3.20;;;0.40;99.90;;;;;;4990537;28;20203;-83
2023/03/16 04:23:47;;;;;;;5.23;2.23;;;0.30;99.90;;;;;;4990632;28;20199;-72
2023/03/16 04:26:13;;;;;;;4.27;2.00;;;0.40;99.90;;;;;;4967752;28;20722;-68
2023/03/16 04:28:38;;;;;;;6.50;2.07;;;0.40;99.90;;;;;;4991155;28;20290;-68
2023/03/16 04:31:07;;;;;;;4.40;2.07;;;0.40;99.90;;;;;;4987295;28;20583;-67
2023/03/16 04:33:34;;;;;;;2.80;1.77;;;0.40;99.90;;;;;;4989761;28;20308;-69
2023/03/16 04:36:01;;;;;;;6.23;2.20;;;0.30;99.90;;;;;;4981707;28;20213;-66
2023/03/16 04:38:27;;;;;;;3.70;1.80;;;0.30;99.90;;;;;;4976288;28;20238;-67
2023/03/16 04:40:53;;;;;;;4.77;2.10;;;0.20;99.90;;;;;;4976366;28;20219;-66
2023/03/16 04:43:18;;;;;;;4.40;1.80;;;0.20;99.90;;;;;;4976352;28;20206;-67
2023/03/16 04:45:44;;;;;;;3.03;2.10;;;0.20;99.90;;;;;;4981204;28;20601;-67
2023/03/16 04:48:09;;;;;;;5.03;2.63;;;0.20;99.90;;;;;;4984021;28;20211;-67
2023/03/16 04:50:35;;;;;;;4.70;2.20;;;0.20;99.90;;;;;;4985225;28;20211;-66
2023/03/16 04:53:00;;;;;;;5.73;2.67;;;0.20;99.90;;;;;;4976376;28;20285;-66
2023/03/16 04:55:26;;;;;;;10.23;3.00;;;0.10;99.90;;;;;;4976135;28;20779;-66
2023/03/16 04:57:51;;;;;;;2.30;1.73;;;0.10;99.90;;;;;;4976025;28;20697;-66
2023/03/16 05:00:19;;;;;;;5.90;2.70;;;0.10;99.90;;;;;;4976068;28;20258;-69
2023/03/16 05:02:46;;;;;;;3.93;1.90;;;0.10;99.90;;;;;;4984091;28;20209;-66
2023/03/16 05:05:11;;;;;;;5.17;2.63;;;0.10;99.90;;;;;;4989098;28;20552;-67
2023/03/16 05:07:37;;;;;;;6.93;2.87;;;0.10;99.90;;;;;;4988325;28;20684;-66
2023/03/16 05:10:03;;;;;;;7.03;1.97;;;0.10;99.90;;;;;;4988603;28;20210;-66
2023/03/16 05:12:28;;;;;;;3.70;1.77;;;0.10;99.90;;;;;;4989248;28;20210;-67
2023/03/16 05:14:54;;;;;;;7.87;2.70;;;0.10;99.90;;;;;;4987120;28;20214;-66
2023/03/16 05:17:19;;;;;;;8.23;3.10;;;0.10;99.90;;;;;;4988306;28;20218;-66
2023/03/16 05:19:45;;;;;;;3.87;2.30;;;0.10;99.90;;;;;;4986986;28;20234;-67
2023/03/16 05:22:10;;;;;;;2.13;2.00;;;0.10;99.90;;;;;;4986933;28;20567;-66
2023/03/16 05:24:36;;;;;;;5.43;2.27;;;0.00;99.90;;;;;;4988400;28;20202;-67
2023/03/16 05:27:02;;;;;;;6.53;2.40;;;0.10;99.90;;;;;;4985392;28;20223;-67
2023/03/16 05:29:30;;;;;;;3.83;2.07;;;0.10;99.90;;;;;;4988976;28;20692;-69
2023/03/16 05:31:55;;;;;;;3.73;2.17;;;0.10;99.90;;;;;;4989270;28;20349;-67
2023/03/16 05:34:21;;;;;;;4.87;2.33;;;0.10;99.90;;;;;;4994430;28;20222;-69
2023/03/16 05:36:47;;;;;;;8.30;2.90;;;0.10;99.90;;;;;;4992707;28;20951;-69
2023/03/16 05:39:12;;;;;;;5.77;2.10;;;0.10;99.90;;;;;;4998750;28;20557;-72
2023/03/16 05:41:38;;;;;;;6.33;2.77;;;0.10;99.90;;;;;;4999092;28;20222;-68
2023/03/16 05:44:04;;;;;;;11.17;3.33;;;0.10;99.90;;;;;;4998760;28;20569;-68
2023/03/16 05:46:30;;;;;;;5.33;1.97;;;0.30;99.90;;;;;;4990372;28;20610;-69
2023/03/16 05:48:56;;;;;;;4.40;2.70;;;0.30;99.90;;;;;;4987859;28;20318;-68
2023/03/16 05:51:21;;;;;;;4.60;3.00;;;0.20;99.90;;;;;;4988683;28;20614;-68
2023/03/16 05:53:48;;;;;;;6.93;4.40;;;0.30;99.90;;;;;;4988532;28;20214;-69
2023/03/16 05:56:13;;;;;;;7.77;3.17;;;0.30;99.90;;;;;;4988472;28;20210;-68
2023/03/16 05:58:39;;;;;;;9.30;2.77;;;0.30;99.90;;;;;;4988628;28;20244;-69
2023/03/16 06:01:06;;;;;;;5.70;2.47;;;0.30;99.90;;;;;;4989211;28;20198;-68
2023/03/16 06:03:31;;;;;;;11.30;4.57;;;0.30;99.90;;;;;;4991620;28;20210;-68
2023/03/16 06:05:57;;;;;;;4.23;2.23;;;0.30;99.90;;;;;;4988482;28;20196;-69
2023/03/16 06:08:22;;;;;;;4.27;3.07;;;0.30;99.90;;;;;;4988136;28;20635;-69
2023/03/16 06:10:48;;;;;;;5.33;2.80;;;0.30;99.90;;;;;;4988490;28;20210;-69
2023/03/16 06:13:14;;;;;;;6.77;3.10;;;0.30;99.90;;;;;;4987960;28;20203;-68
2023/03/16 06:15:40;;;;;;;6.37;2.80;;;0.40;99.90;;;;;;4989225;28;20214;-69
2023/03/16 06:18:05;;;;;;;8.13;2.43;;;0.50;99.90;;;;;;4986086;28;20215;-68
2023/03/16 06:20:31;;;;;;;7.87;3.50;;;0.60;99.90;;;;;;4989701;28;20199;-69
2023/03/16 06:22:57;;;;;;;10.10;5.03;;;0.60;99.90;;;;;;4985033;28;20779;-68
2023/03/16 06:25:22;;;;;;;9.60;2.97;;;0.70;99.90;;;;;;4979117;28;20303;-69
2023/03/16 06:27:49;;;;;;;9.13;3.20;;;0.70;99.90;;;;;;4978733;28;20204;-69
2023/03/16 06:30:15;;;;;;;10.27;2.93;;;0.80;99.90;;;;;;4976762;28;20231;-68
2023/03/16 06:32:41;;;;;;;6.17;3.10;;;0.90;99.90;;;;;;4979556;28;20209;-69
2023/03/16 06:35:08;;;;;;;7.83;4.43;;;1.00;99.90;;;;;;4997679;28;20215;-69
2023/03/16 06:37:34;;;;;;;4.07;3.10;;;1.10;99.90;;;;;;4997539;28;20311;-68
2023/03/16 06:39:59;;;;;;;6.10;2.90;;;1.10;99.90;;;;;;4996401;28;20336;-70
2023/03/16 06:42:25;;;;;;;7.50;4.00;;;1.20;99.90;;;;;;4995201;28;20196;-70
2023/03/16 06:44:51;;;;;;;10.40;6.47;;;1.40;99.90;;;;;;4997483;28;20627;-69
2023/03/16 06:47:17;;;;;;;7.07;5.00;;;1.50;99.90;;;;;;4998140;28;20205;-70
2023/03/16 06:49:43;;;;;;;5.93;3.13;;;1.60;99.90;;;;;;4996961;28;20476;-69
2023/03/16 06:52:09;;;;;;;5.93;2.50;;;1.80;99.90;;;;;;4997357;28;20290;-71
2023/03/16 06:54:36;;;;;;;11.33;2.93;;;1.90;99.90;;;;;;4995924;28;20206;-70
2023/03/16 06:57:02;;;;;;;7.73;2.87;;;2.00;99.90;;;;;;4997059;28;20625;-69
2023/03/16 06:59:27;;;;;;;6.03;3.00;;;2.20;99.90;;;;;;4997105;28;20235;-68
2023/03/16 07:01:53;;;;;;;7.30;3.00;;;2.30;99.90;;;;;;4997214;28;20535;-69
2023/03/16 07:04:18;;;;;;;5.50;2.63;;;2.50;99.90;;;;;;4997270;28;20200;-69
2023/03/16 07:06:44;;;;;;;4.33;3.17;;;2.70;99.90;;;;;;4995093;28;20580;-69
2023/03/16 07:09:11;;;;;;;6.60;3.23;;;2.80;99.90;;;;;;4996059;28;20238;-71
2023/03/16 07:11:37;;;;;;;4.37;2.57;;;2.90;99.90;;;;;;4996957;28;20211;-70
2023/03/16 07:14:02;;;;;;;6.73;2.67;;;3.00;99.90;;;;;;4996400;28;20203;-70
2023/03/16 07:16:28;;;;;;;7.63;3.03;;;3.10;99.90;;;;;;4995114;28;20218;-71
2023/03/16 07:18:53;;;;;;;5.90;2.67;;;3.30;99.90;;;;;;4995695;28;20505;-70
2023/03/16 07:21:20;;;;;;;6.23;2.73;;;3.40;99.90;;;;;;4996040;28;20973;-69
2023/03/16 07:23:46;;;;;;;4.67;2.73;;;3.60;99.90;;;;;;4995661;28;20254;-70
2023/03/16 07:26:11;;;;;;;7.50;2.67;;;3.70;99.90;;;;;;4996598;28;20200;-69
2023/03/16 07:28:37;;;;;;;6.70;2.07;;;3.90;99.90;;;;;;4996109;28;20696;-70
2023/03/16 07:31:04;;;;;;;4.43;2.33;;;4.10;99.90;;;;;;4994618;28;20828;-71
2023/03/16 07:33:34;;;;;;;12.80;2.67;;;4.10;99.90;;;;;;4996727;28;20701;-70
2023/03/16 07:36:03;;;;;;;3.40;1.83;;;4.30;99.90;;;;;;4996451;28;20227;-69
2023/03/16 07:38:29;;;;;;;4.90;2.50;;;4.50;99.90;;;;;;4996255;28;20270;-69
2023/03/16 07:40:54;;;;;;;4.77;1.57;;;4.60;99.90;;;;;;4994133;28;20288;-69
2023/03/16 07:43:19;;;;;;;7.17;3.23;;;4.70;99.90;;;;;;4986534;28;20212;-68
2023/03/16 07:45:50;;;;;;;8.73;2.07;;;4.80;99.90;;;;;;4968532;28;20223;-68
2023/03/16 07:48:16;;;;;;;5.10;1.80;;;4.80;99.90;;;;;;4986452;28;20683;-69
2023/03/16 07:50:44;;;;;;;5.70;1.90;;;4.60;99.90;;;;;;4986601;28;20209;-70
2023/03/16 07:53:10;;;;;;;5.67;1.77;;;4.70;99.90;;;;;;4984623;28;20197;-70
2023/03/16 07:55:37;;;;;;;9.53;2.73;;;4.70;99.90;;;;;;4987051;28;20208;-69
2023/03/16 07:58:04;;;;;;;20.07;12.60;;;4.90;99.90;;;;;;4986518;28;21289;-69
2023/03/16 08:00:30;;;;;;;2.13;1.70;;;5.10;99.90;;;;;;4986682;28;20220;-69
2023/03/16 08:02:56;;;;;;;8.57;1.90;;;5.10;99.90;;;;;;4985266;28;20192;-68
2023/03/16 08:05:22;;;;;;;3.50;1.50;;;5.10;99.90;;;;;;4986132;28;20203;-68
2023/03/16 08:07:48;;;;;;;2.20;1.37;;;5.10;99.40;;;;;;4985897;28;20211;-68
2023/03/16 08:10:13;;;;;;;2.47;1.97;;;5.10;99.20;;;;;;4986189;28;20225;-67
2023/03/16 08:12:39;;;;;;;5.03;1.87;;;5.10;99.90;;;;;;4986644;28;20804;-68
2023/03/16 08:15:05;;;;;;;1.73;1.27;;;5.10;99.90;;;;;;4985694;28;20235;-67
2023/03/16 08:17:31;;;;;;;3.37;1.40;;;5.20;99.10;;;;;;4984558;28;20232;-66
2023/03/16 08:19:56;;;;;;;5.23;1.63;;;5.10;97.70;;;;;;4985853;28;20663;-69
2023/03/16 08:22:23;;;;;;;3.90;1.97;;;5.00;97.70;;;;;;4986318;28;20199;-67
2023/03/16 08:24:49;;;;;;;3.30;1.20;;;5.00;97.70;;;;;;4986593;28;20445;-66
2023/03/16 08:27:14;;;;;;;2.83;1.17;;;5.10;97.70;;;;;;4986015;28;20670;-68
2023/03/16 08:29:43;;;;;;;7.10;1.90;;;5.10;96.60;;;;;;4983905;28;20216;-69
2023/03/16 08:32:09;;;;;;;5.60;1.90;;;5.00;96.50;;;;;;4984898;28;20200;-65
2023/03/16 08:34:35;;;;;;;4.47;1.07;;;5.00;96.80;;;;;;4985782;28;20219;-65
2023/03/16 08:37:00;;;;;;;1.97;1.40;;;5.10;96.40;;;;;;4985329;28;20235;-66
2023/03/16 08:39:26;;;;;;;3.13;1.27;;;5.20;96.10;;;;;;4985810;28;20693;-66
2023/03/16 08:41:52;;;;;;;3.53;1.40;;;5.40;96.40;;;;;;4983953;28;20675;-66
2023/03/16 08:44:19;;;;;;;4.23;1.73;;;5.50;96.50;;;;;;4986485;28;20214;-66
2023/03/16 08:46:44;;;;;;;3.57;1.30;;;5.60;95.80;;;;;;4986096;28;20212;-65
2023/03/16 08:49:11;;;;;;;8.03;2.03;;;5.60;95.10;;;;;;4986091;28;20204;-65
2023/03/16 08:51:37;;;;;;;3.77;1.30;;;5.60;95.20;;;;;;4980095;28;20217;-64
2023/03/16 08:54:03;;;;;;;2.97;1.10;;;5.70;95.70;;;;;;4977190;28;20212;-66
2023/03/16 08:56:29;;;;;;;3.33;1.20;;;5.70;95.70;;;;;;4977567;28;20718;-66
2023/03/16 08:58:56;;;;;;;3.10;1.30;;;5.80;94.90;;;;;;4984819;28;20263;-66
2023/03/16 09:01:22;;;;;;;3.10;1.23;;;5.90;95.20;;;;;;4985864;28;20275;-66
2023/03/16 09:03:48;;;;;;;3.07;1.07;;;5.90;94.50;;;;;;4985408;28;20211;-65
2023/03/16 09:06:15;;;;;;;4.90;1.43;;;5.90;95.10;;;;;;4982462;28;20219;-65
2023/03/16 09:08:42;;;;;;;7.23;1.30;;;6.00;95.40;;;;;;4985463;28;20444;-65
2023/03/16 09:11:14;;;;;;;3.80;1.90;;;6.10;94.10;;;;;;4994020;28;20576;-65
2023/03/16 09:13:40;;;;;;;4.17;0.97;;;6.20;92.90;;;;;;4978483;28;20337;-65
2023/03/16 09:16:07;;;;;;;2.43;1.43;;;6.20;92.60;;;;;;4980706;28;20666;-67
2023/03/16 09:18:34;;;;;;;1.67;1.23;;;6.20;92.00;;;;;;4988710;28;20637;-71
2023/03/16 09:21:01;;;;;;;7.47;1.60;;;6.20;92.40;;;;;;4985828;28;20713;-71
2023/03/16 09:23:27;;;;;;;3.03;1.70;;;6.30;92.60;;;;;;4975371;28;20189;-70
2023/03/16 09:25:58;;;;;;;2.30;1.37;;;6.30;92.20;;;;;;4980162;28;20212;-71
2023/03/16 09:28:26;;;;;;;1.50;0.97;;;6.30;91.70;;;;;;4984534;28;20211;-69
2023/03/16 09:30:52;;;;;;;2.67;1.30;;;6.40;91.90;;;;;;4983845;28;20710;-69
2023/03/16 09:33:17;;;;;;;4.53;1.77;;;6.40;91.30;;;;;;4984364;28;20228;-69
2023/03/16 09:35:44;;;;;;;4.40;1.40;;;6.50;91.70;;;;;;4985056;28;20282;-70
2023/03/16 09:38:10;;;;;;;5.20;1.17;;;6.50;90.90;;;;;;4986847;28;20648;-70
2023/03/16 09:40:36;;;;;;;4.53;2.27;;;6.60;90.20;;;;;;4986392;28;20317;-71
2023/03/16 09:43:24;;;;;;;3.03;1.30;;;6.70;90.30;;;;;;4988798;28;20250;-70
2023/03/16 09:46:01;;;;;;;2.53;1.40;;;6.80;90.70;;;;;;4986680;28;20227;-69
2023/03/16 09:48:31;;;;;;;2.70;1.20;;;6.80;89.90;;;;;;4987192;28;20215;-70
2023/03/16 09:50:59;;;;;;;3.57;1.33;;;6.90;87.40;;;;;;4994691;28;20223;-70
2023/03/16 09:53:30;;;;;;;5.67;1.40;;;6.90;84.90;;;;;;4993649;28;20196;-70
2023/03/16 09:56:08;;;;;;;2.20;1.20;;;7.00;85.50;;;;;;4986861;28;20200;-68
2023/03/16 09:58:35;;;;;;;2.27;0.80;;;7.00;81.90;;;;;;4982336;28;20223;-65
2023/03/16 10:01:30;;;;;;;1.80;1.10;;;7.00;83.20;;;;;;4974975;28;20351;-65
2023/03/16 10:04:21;;;;;;;2.43;1.03;;;7.10;81.60;;;;;;4976642;28;20292;-66
2023/03/16 10:07:08;;;;;;;3.17;1.50;;;7.30;78.30;;;;;;4987980;28;20203;-64
2023/03/16 10:09:48;;;;;;;1.37;0.70;;;7.40;79.30;;;;;;4987530;28;20214;-67
2023/03/16 10:12:14;;;;;;;2.57;0.90;;;7.60;77.30;;;;;;4983092;28;20279;-65
2023/03/16 10:14:55;;;;;;;3.00;0.83;;;7.60;74.90;;;;;;4986803;28;20299;-64
2023/03/16 10:17:29;;;;;;;3.03;1.03;;;7.60;73.50;;;;;;4985552;28;20223;-66
2023/03/16 10:20:18;;;;;;;2.73;0.83;;;7.80;71.60;;;;;;4984858;28;20604;-63
2023/03/16 10:22:46;;;;;;;2.43;1.17;;;8.00;71.50;;;;;;4989101;28;20265;-62
2023/03/16 10:25:11;;;;;;;2.20;1.40;;;8.00;68.80;;;;;;4988691;28;20204;-65
2023/03/16 10:27:43;;;;;;;2.73;1.33;;;8.00;70.00;;;;;;4990316;28;20750;-65
2023/03/16 10:30:32;;;;;;;4.13;1.27;;;8.10;69.20;;;;;;4990244;28;20274;-65
2023/03/16 10:33:04;;;;;;;2.13;0.80;;;8.10;67.50;;;;;;4987493;28;20231;-64
2023/03/16 10:35:54;;;;;;;1.40;1.03;;;8.10;68.00;;;;;;4985889;28;20200;-63
2023/03/16 10:38:29;;;;;;;2.03;0.97;;;8.40;69.10;;;;;;4991904;28;20218;-63
2023/03/16 10:40:56;;;;;;;3.57;1.20;;;8.30;66.00;;;;;;4991988;28;20204;-64
2023/03/16 10:43:23;;;;;;;3.70;0.97;;;8.50;69.10;;;;;;4991937;28;20211;-65
2023/03/16 10:45:48;;;;;;;2.50;1.30;;;8.70;65.70;;;;;;4992186;28;20196;-73
2023/03/16 10:48:19;;;;;;;2.10;1.50;;;8.80;65.20;;;;;;4985718;28;21002;-73
2023/03/16 10:50:50;;;;;;;4.80;1.40;;;8.90;65.70;;;;;;4991344;28;20207;-72
2023/03/16 10:53:29;;;;;;;3.03;1.47;;;9.00;65.70;;;;;;4987471;28;20540;-63
2023/03/16 10:56:00;;;;;;;3.63;0.97;;;9.10;65.30;;;;;;4988950;28;21040;-64
2023/03/16 10:58:31;;;;;;;2.40;1.47;;;9.20;64.60;;;;;;4990600;28;20223;-64
2023/03/16 11:00:57;;;;;;;5.70;1.60;;;9.30;66.80;;;;;;4988973;28;20188;-65
2023/03/16 11:03:31;;;;;;;3.43;1.50;;;9.60;65.80;;;;;;4989743;28;20200;-65
2023/03/16 11:06:04;;;;;;;2.90;1.37;;;9.80;70.70;;;;;;4988215;28;20200;-65
2023/03/16 11:08:38;;;;;;;2.47;1.20;;;10.10;66.60;;;;;;4988612;28;20570;-66
2023/03/16 11:11:29;;;;;;;3.60;1.20;;;10.30;67.00;;;;;;4989577;28;20198;-65
2023/03/16 11:14:01;;;;;;;3.63;1.40;;;10.50;61.10;;;;;;4990032;28;20202;-66
2023/03/16 11:16:41;;;;;;;3.30;1.17;;;10.20;60.80;;;;;;4983240;28;20942;-75
2023/03/16 11:19:20;;;;;;;3.07;1.53;;;10.30;60.10;;;;;;4986015;28;20306;-64
2023/03/16 11:21:50;;;;;;;2.47;1.27;;;10.50;60.80;;;;;;4989255;28;20216;-64
2023/03/16 11:24:29;;;;;;;0.93;0.93;;;10.80;63.30;;;;;;4985519;28;20197;-63
2023/03/16 11:26:59;;;;;;;4.17;1.50;;;11.20;60.90;;;;;;4989450;28;20198;-76
2023/03/16 11:29:45;;;;;;;4.67;1.10;;;11.30;58.10;;;;;;4988469;28;20211;-77
2023/03/16 11:32:19;;;;;;;3.50;0.97;;;11.30;53.30;;;;;;4988436;28;20206;-78
2023/03/16 11:34:47;;;;;;;2.10;1.07;;;11.60;55.40;;;;;;4987265;28;20229;-77
2023/03/16 11:37:35;;;;;;;4.20;1.73;;;11.50;50.50;;;;;;4980830;28;20281;-78
2023/03/16 11:40:15;;;;;;;3.10;1.43;;;11.40;52.30;;;;;;4988999;28;20810;-77
2023/03/16 11:42:58;;;;;;;3.60;1.10;;;11.70;52.90;;;;;;4992389;28;20679;-76
2023/03/16 11:45:47;;;;;;;4.70;1.63;;;11.80;53.40;;;;;;4983668;28;20871;-75
2023/03/16 11:48:47;;;;;;;4.10;1.50;;;12.20;54.00;;;;;;4988028;28;20669;-79
2023/03/16 11:51:51;;;;;;;4.90;1.80;;;12.20;53.40;;;;;;4989962;28;20576;-77
2023/03/16 11:54:36;;;;;;;2.70;1.43;;;12.30;52.90;;;;;;4884826;28;20410;-79
2023/03/16 11:57:21;;;;;;;3.30;1.10;;;12.60;51.70;;;;;;4988276;28;20778;-80
2023/03/16 12:00:07;;;;;;;2.20;1.67;;;12.90;54.40;;;;;;4987766;28;20207;-79
2023/03/16 12:02:44;;;;;;;2.30;1.03;;;13.00;51.90;;;;;;4986365;28;20244;-77
2023/03/16 12:05:52;;;;;;;2.53;1.10;;;13.10;50.50;;;;;;4989004;28;20229;-77
2023/03/16 12:08:53;;;;;;;1.97;1.33;;;13.30;49.80;;;;;;4985072;28;20242;-76
2023/03/16 12:11:36;;;;;;;4.33;1.13;;;13.20;49.50;;;;;;4984572;28;20658;-82
2023/03/16 12:14:33;;;;;;;4.70;1.77;;;13.50;48.80;;;;;;4994396;28;21002;-69
2023/03/16 12:17:04;;;;;;;4.10;1.80;;;13.90;47.30;;;;;;4987797;28;20220;-77
2023/03/16 12:19:53;;;;;;;2.70;1.00;;;13.80;47.60;;;;;;4987251;28;20650;-74
2023/03/16 12:22:22;;;;;;;3.57;1.03;;;14.00;45.50;;;;;;4987870;28;20211;-75
2023/03/16 12:24:48;;;;;;;2.23;1.23;;;14.50;45.40;;;;;;4986870;28;20197;-77
2023/03/16 12:27:21;;;;;;;1.63;1.03;;;15.00;43.70;;;;;;4987020;28;20207;-77
2023/03/16 12:30:12;;;;;;;2.17;1.20;;;14.80;42.20;;;;;;4988773;28;20969;-71
2023/03/16 12:32:46;;;;;;;2.77;1.17;;;15.40;43.40;;;;;;4983517;28;20263;-72
2023/03/16 12:35:40;;;;;;;4.30;1.73;;;15.70;41.30;;;;;;4989151;28;20209;-74
2023/03/16 12:38:47;;;;;;;1.17;1.07;;;15.80;40.70;;;;;;4988002;28;20246;-73
2023/03/16 12:41:33;;;;;;;3.70;1.70;;;16.30;40.00;;;;;;4880622;29;20295;-80
2023/03/16 12:44:14;;;;;;;1.87;1.00;;;16.90;39.10;;;;;;4983787;28;20223;-74
2023/03/16 12:47:03;;;;;;;2.53;0.87;;;16.50;37.40;;;;;;4988077;28;20204;-74
2023/03/16 12:49:32;;;;;;;4.30;0.90;;;16.30;36.80;;;;;;4988453;28;20243;-76
2023/03/16 12:52:04;;;;;;;3.60;1.00;;;16.30;36.00;;;;;;4985660;28;20832;-75
2023/03/16 12:54:30;;;;;;;1.43;1.03;;;16.40;34.40;;;;;;4984837;28;20205;-74
2023/03/16 12:57:14;;;;;;;2.40;1.23;;;16.70;35.40;;;;;;4983017;28;20324;-64
2023/03/16 12:59:46;;;;;;;1.60;1.30;;;16.60;34.60;;;;;;4986016;28;20565;-65
2023/03/16 13:02:28;;;;;;;1.43;1.20;;;16.50;35.10;;;;;;4982654;28;20234;-65
2023/03/16 13:05:01;;;;;;;2.33;0.93;;;17.00;35.30;;;;;;4993103;28;20219;-66
2023/03/16 13:07:29;;;;;;;3.87;0.93;;;17.40;33.90;;;;;;4974996;28;20293;-65
2023/03/16 13:09:58;;;;;;;1.63;0.80;;;17.60;32.90;;;;;;4979505;28;20304;-67